Portada
METAR-TAF:

METAR-TAF

Aeroports :

Heringsdorf, Alemanya

latitud: 53-53N, longitud: 014-09E, altitud: 28 m

Observació

L'informe es va fer fa 9 hores i 44 minuts, a les 14:50 UTC
Vent 8 kt del Nord/Nord-Est, variant entre Nord i Est/Nord-Est
Temperatura 18°C
Humitat 52%
Pressió 1020 hPa
Visibilitat 10 km o més
sense núvols per sota de 1500 mi sense presència de cumulonimbus.

METAR: EDAH 151450Z 03008KT 350V070 CAVOK 18/08 Q1020

Hora: 02:34 (00:34 UTC)

Pronòstic

L'informe es va fer fa 10 hores i 34 minuts, a les 14:00 UTC
Pronòstic vàlid del 15 a les 15 UTC al 15 a les 24 UTC
Vent 7 kt del Nord/Nord-Est
Visibilitat 10 km o més
sense núvols per sota de 1500 mi sense presència de cumulonimbus.
Evolucionant progressivament
l' 15 a les 17 UTC al 15 a les 19 UTC
Vent 1 kt amb direcció variable

TAF: EDAH 151400Z 1515/1524 03007KT CAVOK BECMG 1517/1519 VRB01KT

Observacions i pronòstics meteorològics de més de 4000 aeroports (METAR i TAF).

Les estacions disponibles són els punts grocs i vermells al mapa.

Posi el ratolí al punt desitjat per veure el nom de l'estació.

Feu clic per veure les observacions i els pronòstics meteorològics.

Per canviar el mapa: feu clic els botons verds amb una creu de color negre per apropar; al botó verd amb un guió per allunyar la imatge; o en les fletxes verdes per a mapes adjacents.


METAR-TAF: